Time;durP1;ratioP1;P1;durP2;ratioP2;P2;SDS_P1;SDS_P2;PMS_P1;PMS_P2;Temp;Humidity;BMP_temperature;BMP_pressure;BME280_temperature;BME280_humidity;BME280_pressure;Samples;Min_cycle;Max_cycle;Signal;HPM_P1;HPM_P2
2021/05/15 00:01:51;;;;;;;5.10;4.60;;;;;;;13.64;69.27;99960.38;4902223;28;128885;-61
2021/05/15 00:04:17;;;;;;;5.07;4.68;;;;;;;13.62;69.42;99955.25;4884110;28;98146;-61
2021/05/15 00:06:43;;;;;;;4.88;4.47;;;;;;;13.58;69.36;99956.16;4901752;28;118551;-61
2021/05/15 00:09:10;;;;;;;4.75;4.35;;;;;;;13.55;69.18;99952.13;4902127;28;112920;-61
2021/05/15 00:11:36;;;;;;;4.80;4.40;;;;;;;13.54;69.45;99955.13;4901678;28;98567;-67
2021/05/15 00:14:03;;;;;;;4.57;4.20;;;;;;;13.51;69.66;99956.53;4883323;28;98293;-62
2021/05/15 00:16:29;;;;;;;4.68;4.28;;;;;;;13.48;69.36;99957.16;4902116;28;98042;-67
2021/05/15 00:18:55;;;;;;;4.25;3.85;;;;;;;13.43;69.46;99952.59;4884337;28;103221;-63
2021/05/15 00:21:21;;;;;;;4.68;4.00;;;;;;;13.41;69.49;99957.53;4901583;28;129279;-67
2021/05/15 00:23:48;;;;;;;4.22;3.92;;;;;;;13.38;69.37;99952.69;4893447;28;118052;-67
2021/05/15 00:26:15;;;;;;;4.45;4.05;;;;;;;13.37;69.14;99961.94;4885673;28;98131;-61
2021/05/15 00:28:42;;;;;;;4.65;4.25;;;;;;;13.34;69.30;99964.44;4885145;28;98475;-61
2021/05/15 00:31:08;;;;;;;4.13;3.83;;;;;;;13.31;69.37;99956.91;4902297;28;98803;-61
2021/05/15 00:33:34;;;;;;;4.25;3.95;;;;;;;13.29;69.79;99957.19;4901903;28;126348;-61
2021/05/15 00:36:00;;;;;;;4.82;4.03;;;;;;;13.27;69.46;99951.28;4901965;28;98318;-61
2021/05/15 00:38:26;;;;;;;4.50;4.10;;;;;;;13.25;69.44;99957.00;4883205;28;98418;-61
2021/05/15 00:40:52;;;;;;;4.25;3.85;;;;;;;13.23;69.39;99961.09;4902550;28;97845;-67
2021/05/15 00:43:18;;;;;;;3.83;3.53;;;;;;;13.21;69.51;99950.53;4884110;28;115186;-67
2021/05/15 00:45:46;;;;;;;3.97;3.67;;;;;;;13.20;69.34;99948.09;4884816;28;98005;-67
2021/05/15 00:48:12;;;;;;;5.30;4.30;;;;;;;13.18;69.24;99943.00;4902661;28;100678;-67
2021/05/15 00:50:38;;;;;;;4.25;3.85;;;;;;;13.15;69.22;99943.59;4884061;28;116791;-61
2021/05/15 00:53:04;;;;;;;3.90;3.60;;;;;;;13.14;69.55;99947.41;4903250;28;97741;-67
2021/05/15 00:55:31;;;;;;;4.30;3.90;;;;;;;13.12;68.98;99946.09;4902608;28;97828;-61
2021/05/15 00:57:57;;;;;;;3.92;3.55;;;;;;;13.09;69.31;99946.69;4903896;28;98310;-61
2021/05/15 01:00:23;;;;;;;4.03;3.63;;;;;;;13.08;69.06;99948.56;4871705;28;128401;-62
2021/05/15 01:02:49;;;;;;;3.92;3.63;;;;;;;13.07;69.17;99946.19;4905538;28;97998;-67
2021/05/15 01:05:16;;;;;;;4.00;3.55;;;;;;;13.06;69.20;99952.69;4888262;28;97972;-67
2021/05/15 01:07:46;;;;;;;3.80;3.50;;;;;;;13.00;69.33;99947.34;4905007;28;98291;-67
2021/05/15 01:10:12;;;;;;;4.10;3.80;;;;;;;13.02;69.19;99955.19;4905449;28;116375;-61
2021/05/15 01:12:54;;;;;;;4.00;3.70;;;;;;;12.97;69.35;99947.97;4904334;28;97865;-61
2021/05/15 01:15:24;;;;;;;4.32;3.90;;;;;;;12.96;69.34;99949.03;4889014;28;97830;-61
2021/05/15 01:18:09;;;;;;;3.78;3.47;;;;;;;12.92;69.46;99944.53;4871892;28;107527;-67
2021/05/15 01:20:35;;;;;;;4.03;3.60;;;;;;;12.95;69.57;99936.63;4887444;28;117928;-61
2021/05/15 01:23:01;;;;;;;4.18;3.80;;;;;;;12.94;69.28;99935.03;4904961;28;128067;-61
2021/05/15 01:25:27;;;;;;;3.70;3.40;;;;;;;12.92;69.28;99942.63;4904798;28;115454;-67
2021/05/15 01:27:53;;;;;;;3.80;3.50;;;;;;;12.91;69.05;99937.50;4887578;28;98349;-61
2021/05/15 01:30:21;;;;;;;3.70;3.40;;;;;;;12.89;69.12;99937.81;4904751;28;129215;-67
2021/05/15 01:32:47;;;;;;;3.83;3.47;;;;;;;12.87;69.55;99937.28;4905358;28;97918;-67
2021/05/15 01:35:15;;;;;;;3.55;3.25;;;;;;;12.86;69.43;99933.00;4905806;28;98035;-61
2021/05/15 01:37:41;;;;;;;4.03;3.70;;;;;;;12.85;69.13;99933.28;4904206;28;106463;-67
2021/05/15 01:40:08;;;;;;;3.72;3.42;;;;;;;12.82;69.12;99928.47;4871529;28;100304;-61
2021/05/15 01:42:35;;;;;;;3.45;3.20;;;;;;;12.82;69.01;99933.88;4904774;28;97987;-67
2021/05/15 01:45:01;;;;;;;3.60;3.30;;;;;;;12.81;69.02;99935.78;4905756;28;97877;-61
2021/05/15 01:47:27;;;;;;;3.88;3.58;;;;;;;12.79;68.96;99937.97;4904141;28;112562;-61
2021/05/15 01:49:53;;;;;;;3.65;3.35;;;;;;;12.76;69.17;99936.66;4904643;28;98945;-61
2021/05/15 01:52:25;;;;;;;3.40;3.10;;;;;;;12.73;69.11;99929.16;4901488;28;126156;-61
2021/05/15 01:54:51;;;;;;;3.50;3.17;;;;;;;12.73;69.05;99933.72;4904510;28;118849;-61
2021/05/15 01:57:17;;;;;;;3.88;3.30;;;;;;;12.72;69.00;99926.72;4903005;28;128030;-61
2021/05/15 01:59:43;;;;;;;3.47;3.25;;;;;;;12.71;69.11;99925.13;4853155;28;127665;-67
2021/05/15 02:02:09;;;;;;;3.70;3.40;;;;;;;12.68;68.90;99921.09;4886027;28;127611;-67
2021/05/15 02:04:35;;;;;;;3.75;3.45;;;;;;;12.68;68.82;99925.69;4905564;28;117901;-61
2021/05/15 02:07:01;;;;;;;4.13;3.28;;;;;;;12.65;68.92;99923.56;4903759;28;127216;-61
2021/05/15 02:09:27;;;;;;;4.47;3.50;;;;;;;12.63;69.07;99926.59;4904091;28;127460;-61
2021/05/15 02:11:53;;;;;;;3.30;3.00;;;;;;;12.64;68.81;99924.69;4904291;28;127613;-66
2021/05/15 02:14:19;;;;;;;3.10;2.90;;;;;;;12.63;68.95;99917.69;4903964;28;118548;-67
2021/05/15 02:16:45;;;;;;;3.85;3.20;;;;;;;12.63;68.83;99921.19;4903242;28;128453;-67
2021/05/15 02:19:11;;;;;;;3.53;3.22;;;;;;;12.61;68.91;99922.56;4904425;28;114586;-61
2021/05/15 02:21:37;;;;;;;3.30;3.10;;;;;;;12.58;69.22;99913.16;4903597;28;127916;-61
2021/05/15 02:24:05;;;;;;;3.42;3.03;;;;;;;12.58;68.99;99912.34;4886567;28;98088;-68
2021/05/15 02:26:31;;;;;;;3.55;3.10;;;;;;;12.57;68.71;99916.13;4905151;28;111529;-67
2021/05/15 02:28:57;;;;;;;3.00;2.80;;;;;;;12.55;68.62;99918.34;4870842;28;118237;-67
2021/05/15 02:31:23;;;;;;;2.95;2.75;;;;;;;12.53;68.57;99916.72;4885689;28;126155;-61
2021/05/15 02:33:49;;;;;;;3.40;3.10;;;;;;;12.51;68.89;99908.09;4885551;28;117618;-61
2021/05/15 02:36:15;;;;;;;3.10;2.67;;;;;;;12.50;68.74;99906.50;4886583;28;98583;-61
2021/05/15 02:38:41;;;;;;;3.20;2.90;;;;;;;12.49;69.08;99910.28;4869314;28;126854;-67
2021/05/15 02:41:07;;;;;;;3.40;3.10;;;;;;;12.48;68.26;99916.00;4904147;28;112450;-67
2021/05/15 02:43:33;;;;;;;3.40;3.10;;;;;;;12.48;68.83;99918.69;4903847;28;119227;-67
2021/05/15 02:45:59;;;;;;;3.33;2.80;;;;;;;12.46;68.79;99918.19;4902948;28;127974;-61
2021/05/15 02:48:25;;;;;;;3.15;2.90;;;;;;;12.44;68.76;99918.47;4902891;28;124302;-67
2021/05/15 02:50:52;;;;;;;2.92;2.72;;;;;;;12.44;68.37;99918.47;4884428;28;127557;-67
2021/05/15 02:53:18;;;;;;;2.75;2.55;;;;;;;12.42;68.56;99909.06;4866456;28;111164;-67
2021/05/15 02:55:45;;;;;;;2.88;2.63;;;;;;;12.41;68.63;99907.44;4884761;28;98436;-61
2021/05/15 02:58:11;;;;;;;3.25;3.05;;;;;;;12.41;68.40;99915.56;4883742;28;127781;-67
2021/05/15 03:00:38;;;;;;;2.90;2.60;;;;;;;12.38;68.92;99908.03;4899669;28;97879;-61
2021/05/15 03:03:04;;;;;;;2.85;2.65;;;;;;;12.35;68.84;99895.13;4903958;28;97837;-61
2021/05/15 03:05:30;;;;;;;2.83;2.63;;;;;;;12.37;68.69;99901.03;4885364;28;110880;-67
2021/05/15 03:07:56;;;;;;;2.83;2.63;;;;;;;12.33;68.49;99898.09;4902272;28;128206;-67
2021/05/15 03:10:24;;;;;;;3.25;2.40;;;;;;;12.34;68.43;99893.50;4904245;28;98335;-67
2021/05/15 03:12:56;;;;;;;3.05;2.75;;;;;;;12.32;68.30;99896.50;4903037;28;107992;-61
2021/05/15 03:15:23;;;;;;;2.50;2.30;;;;;;;12.31;68.70;99897.59;4886099;28;98295;-61
2021/05/15 03:17:49;;;;;;;2.30;2.10;;;;;;;12.29;68.31;99899.78;4903795;28;98673;-61
2021/05/15 03:20:18;;;;;;;3.05;2.47;;;;;;;12.28;68.41;99890.88;4903104;28;98976;-61
2021/05/15 03:22:45;;;;;;;2.22;2.03;;;;;;;12.27;68.31;99886.56;4903015;28;99911;-67
2021/05/15 03:25:12;;;;;;;2.45;2.20;;;;;;;12.25;68.39;99890.66;4903256;28;118098;-61
2021/05/15 03:27:38;;;;;;;2.88;2.30;;;;;;;12.27;68.14;99889.28;4903779;28;99207;-61
2021/05/15 03:30:06;;;;;;;2.17;2.08;;;;;;;12.29;68.32;99897.06;4902957;28;98046;-67
2021/05/15 03:32:32;;;;;;;2.55;2.35;;;;;;;12.26;68.39;99893.06;4903148;28;98150;-61
2021/05/15 03:34:58;;;;;;;2.40;2.20;;;;;;;12.26;68.08;99892.25;4903574;28;98415;-62
2021/05/15 03:37:24;;;;;;;2.60;2.40;;;;;;;12.27;68.48;99896.56;4884582;28;127302;-68
2021/05/15 03:39:50;;;;;;;2.40;2.20;;;;;;;12.25;68.46;99898.75;4884942;28;128916;-61
2021/05/15 03:42:16;;;;;;;2.30;2.10;;;;;;;12.27;68.14;99901.97;4903138;28;97797;-67
2021/05/15 03:44:42;;;;;;;2.78;2.20;;;;;;;12.28;67.93;99903.59;4902508;28;127920;-67
2021/05/15 03:47:08;;;;;;;2.50;2.30;;;;;;;12.27;68.28;99904.69;4884212;28;127792;-61
2021/05/15 03:49:34;;;;;;;2.20;2.00;;;;;;;12.27;67.88;99904.69;4903093;28;127691;-67
2021/05/15 03:52:00;;;;;;;2.38;2.17;;;;;;;12.34;67.79;99901.59;4902131;28;117945;-67
2021/05/15 03:54:26;;;;;;;2.92;2.20;;;;;;;12.42;67.57;99909.88;4902109;28;126212;-67
2021/05/15 03:56:52;;;;;;;2.40;2.20;;;;;;;12.49;67.37;99904.06;4902586;28;128586;-67
2021/05/15 03:59:18;;;;;;;2.58;2.38;;;;;;;12.56;67.42;99903.72;4884038;28;125872;-67
2021/05/15 04:01:46;;;;;;;2.78;2.38;;;;;;;12.60;67.36;99913.66;4885547;28;98217;-61
2021/05/15 04:04:12;;;;;;;2.60;2.40;;;;;;;12.63;67.23;99917.69;4885711;28;98300;-61
2021/05/15 04:06:38;;;;;;;3.08;2.78;;;;;;;12.69;67.05;99921.88;4885261;28;98295;-61
2021/05/15 04:09:05;;;;;;;2.78;2.58;;;;;;;12.72;67.20;99914.00;4868165;28;109408;-62
2021/05/15 04:11:36;;;;;;;2.92;2.42;;;;;;;12.71;67.00;99919.72;4903895;28;98075;-62
2021/05/15 04:14:10;;;;;;;2.50;2.30;;;;;;;12.75;66.76;99913.41;4902480;28;97824;-67
2021/05/15 04:19:21;;;;;;;3.28;2.60;;;;;;;12.80;67.03;99909.81;4902068;28;97995;-61
2021/05/15 04:21:49;;;;;;;3.22;2.70;;;;;;;12.84;66.76;99920.84;4902989;28;117622;-68
2021/05/15 04:24:15;;;;;;;3.10;2.85;;;;;;;12.85;67.12;99917.03;4902632;28;99004;-67
2021/05/15 04:26:41;;;;;;;3.08;2.67;;;;;;;12.88;67.13;99917.25;4902463;28;98967;-61
2021/05/15 04:29:07;;;;;;;3.13;2.83;;;;;;;12.91;67.42;99911.25;4902049;28;127540;-67
2021/05/15 04:31:33;;;;;;;3.00;2.65;;;;;;;12.93;67.21;99909.06;4864419;28;115538;-61
2021/05/15 04:33:59;;;;;;;2.72;2.53;;;;;;;12.97;67.38;99910.09;4848668;28;127569;-67
2021/05/15 04:36:25;;;;;;;3.22;2.92;;;;;;;12.97;67.65;99907.38;4864419;28;128443;-67
2021/05/15 04:38:52;;;;;;;3.03;2.72;;;;;;;13.03;67.54;99910.78;4863895;28;127487;-67
2021/05/15 04:41:20;;;;;;;2.90;2.70;;;;;;;13.03;67.50;99908.09;4883958;28;97824;-61
2021/05/15 04:43:47;;;;;;;3.17;2.88;;;;;;;13.10;67.57;99913.13;4864085;28;128306;-61
2021/05/15 04:46:13;;;;;;;3.00;2.70;;;;;;;13.09;67.71;99916.94;4897058;28;98354;-67
2021/05/15 04:48:39;;;;;;;2.90;2.65;;;;;;;13.14;67.49;99908.72;4901235;28;127496;-61
2021/05/15 04:51:06;;;;;;;3.10;2.80;;;;;;;13.20;67.58;99912.94;4899992;28;97869;-61
2021/05/15 04:53:32;;;;;;;3.17;2.80;;;;;;;13.30;67.60;99909.28;4897844;28;98741;-67
2021/05/15 04:56:00;;;;;;;3.42;2.80;;;;;;;13.31;67.54;99908.19;4898509;28;128104;-61
2021/05/15 04:58:26;;;;;;;2.88;2.67;;;;;;;13.37;67.60;99915.13;4898050;28;98624;-61
2021/05/15 05:00:52;;;;;;;2.97;2.78;;;;;;;13.47;67.45;99913.00;4898508;28;118158;-67
2021/05/15 05:03:18;;;;;;;3.22;2.92;;;;;;;13.62;67.35;99911.13;4897700;28;128070;-61
2021/05/15 05:05:44;;;;;;;3.35;3.05;;;;;;;13.68;67.30;99916.13;4898015;28;126505;-61
2021/05/15 05:08:10;;;;;;;3.17;2.90;;;;;;;13.83;67.10;99916.91;4898911;28;97890;-67
2021/05/15 05:10:36;;;;;;;3.50;3.10;;;;;;;13.91;66.96;99911.63;4899346;28;98377;-61
2021/05/15 05:13:06;;;;;;;3.20;2.70;;;;;;;14.10;66.71;99916.88;4898236;28;127646;-61
2021/05/15 05:15:32;;;;;;;2.72;2.53;;;;;;;14.25;66.73;99908.44;4897203;28;99325;-67
2021/05/15 05:17:58;;;;;;;3.30;2.50;;;;;;;14.44;66.57;99913.69;4897627;28;127486;-61
2021/05/15 05:20:25;;;;;;;3.47;2.40;;;;;;;14.58;65.80;99913.69;4898618;28;119363;-61
2021/05/15 05:22:51;;;;;;;2.83;2.63;;;;;;;14.76;65.71;99919.25;4897901;28;127284;-66
2021/05/15 05:25:18;;;;;;;2.38;2.17;;;;;;;14.92;65.63;99912.34;4898905;28;98334;-67
2021/05/15 05:27:48;;;;;;;2.50;2.30;;;;;;;15.12;65.43;99916.44;4879581;28;104371;-67
2021/05/15 05:30:20;;;;;;;2.60;2.22;;;;;;;15.36;64.65;99916.09;4898072;28;98980;-67
2021/05/15 05:32:46;;;;;;;2.30;2.10;;;;;;;15.56;64.36;99914.75;4863815;28;98369;-61
2021/05/15 05:35:13;;;;;;;2.30;2.10;;;;;;;15.73;63.98;99917.56;4880800;28;101290;-67
2021/05/15 05:37:39;;;;;;;2.60;2.00;;;;;;;15.95;63.75;99919.38;4899059;28;97896;-61
2021/05/15 05:40:06;;;;;;;2.20;2.00;;;;;;;16.16;63.47;99923.13;4898261;28;97743;-61
2021/05/15 05:42:33;;;;;;;2.67;1.83;;;;;;;16.44;62.82;99918.19;4898140;28;98011;-67
2021/05/15 05:44:59;;;;;;;2.42;1.80;;;;;;;16.80;61.17;99916.28;4901359;28;98475;-68
2021/05/15 05:47:25;;;;;;;1.92;1.60;;;;;;;17.09;60.91;99918.31;4901083;28;127285;-61
2021/05/15 05:49:51;;;;;;;2.05;1.73;;;;;;;17.42;59.67;99913.09;4902000;28;118863;-61
2021/05/15 05:52:17;;;;;;;1.80;1.42;;;;;;;17.77;58.90;99916.50;4900390;28;127993;-62
2021/05/15 05:54:43;;;;;;;1.85;1.58;;;;;;;18.14;57.56;99917.56;4900879;28;111045;-67
2021/05/15 05:57:09;;;;;;;1.88;1.40;;;;;;;18.59;55.69;99911.47;4901145;28;98562;-67
2021/05/15 05:59:35;;;;;;;2.33;1.27;;;;;;;19.02;54.39;99917.66;4901034;28;118181;-62
2021/05/15 06:02:01;;;;;;;1.85;1.27;;;;;;;19.26;53.82;99922.44;4901357;28;102630;-68
2021/05/15 06:04:27;;;;;;;1.70;1.15;;;;;;;19.66;53.13;99916.34;4900592;28;128134;-62
2021/05/15 06:06:53;;;;;;;1.90;0.93;;;;;;;20.15;51.78;99919.84;4901449;28;101003;-68
2021/05/15 06:09:20;;;;;;;1.40;1.00;;;;;;;20.82;50.35;99925.72;4901352;28;117396;-69
2021/05/15 06:11:46;;;;;;;2.55;1.20;;;;;;;21.45;45.33;99925.06;4902546;28;98455;-69
2021/05/15 06:14:13;;;;;;;1.80;1.00;;;;;;;21.94;42.65;99921.94;4901279;28;98579;-62
2021/05/15 06:16:39;;;;;;;2.83;0.82;;;;;;;22.00;42.21;99937.75;4900591;28;116303;-68
2021/05/15 06:19:05;;;;;;;1.42;0.50;;;;;;;22.57;40.44;99919.03;4901466;28;97912;-62
2021/05/15 06:21:31;;;;;;;1.35;0.65;;;;;;;23.05;39.02;99918.81;4901364;28;108834;-62
2021/05/15 06:23:57;;;;;;;1.90;0.60;;;;;;;23.25;38.85;99926.66;4900850;28;116310;-62
2021/05/15 06:26:23;;;;;;;1.83;0.60;;;;;;;23.47;38.01;99921.53;4901158;28;101025;-62
2021/05/15 06:28:49;;;;;;;1.10;0.50;;;;;;;23.11;38.86;99914.59;4901904;28;98015;-68
2021/05/15 06:31:15;;;;;;;1.02;0.50;;;;;;;23.56;37.12;99927.56;4900466;28;116958;-68
2021/05/15 06:33:41;;;;;;;3.22;0.70;;;;;;;23.83;36.46;99922.13;4900499;28;127999;-68
2021/05/15 06:36:07;;;;;;;1.20;0.50;;;;;;;23.81;36.73;99918.94;4900372;28;127525;-68
2021/05/15 06:38:33;;;;;;;1.58;0.50;;;;;;;23.54;37.31;99913.41;4900294;28;117185;-62
2021/05/15 06:40:59;;;;;;;2.75;0.60;;;;;;;23.47;37.67;99924.28;4882132;28;128010;-62
2021/05/15 06:43:25;;;;;;;1.10;0.60;;;;;;;23.49;37.78;99920.00;4882870;28;127029;-68
2021/05/15 06:45:51;;;;;;;1.35;0.40;;;;;;;23.63;37.68;99915.91;4900212;28;127019;-68
2021/05/15 06:48:17;;;;;;;0.75;0.30;;;;;;;24.07;36.87;99918.97;4900441;28;119114;-68
2021/05/15 06:50:44;;;;;;;1.23;0.43;;;;;;;23.86;37.02;99913.94;4899430;28;127836;-69
2021/05/15 06:53:10;;;;;;;0.70;0.30;;;;;;;23.77;36.77;99922.44;4900942;28;112493;-63
2021/05/15 06:55:36;;;;;;;1.08;0.38;;;;;;;24.36;36.44;99917.38;4899396;28;100428;-63
2021/05/15 06:58:05;;;;;;;1.33;0.30;;;;;;;24.24;35.46;99923.91;4900764;28;103813;-63
2021/05/15 07:00:31;;;;;;;0.70;0.30;;;;;;;24.24;35.57;99917.63;4900955;28;103292;-65
2021/05/15 07:02:57;;;;;;;1.80;0.30;;;;;;;25.12;34.44;99914.41;4901128;28;99023;-64
2021/05/15 07:05:23;;;;;;;1.45;0.30;;;;;;;25.49;34.10;99910.78;4899535;28;127494;-64
2021/05/15 07:07:50;;;;;;;2.25;0.32;;;;;;;25.95;33.48;99916.69;4882801;28;98662;-64
2021/05/15 07:10:16;;;;;;;0.80;0.30;;;;;;;26.40;32.47;99919.31;4899126;28;127996;-64
2021/05/15 07:12:42;;;;;;;0.90;0.30;;;;;;;26.44;32.40;99926.41;4899838;28;128265;-64
2021/05/15 07:15:08;;;;;;;1.75;0.30;;;;;;;26.95;31.65;99915.59;4881442;28;127634;-64
2021/05/15 07:17:34;;;;;;;0.98;0.40;;;;;;;27.09;31.49;99910.09;4900011;28;97964;-70
2021/05/15 07:20:03;;;;;;;0.70;0.20;;;;;;;27.01;31.81;99911.28;4882345;28;98888;-64
2021/05/15 07:22:29;;;;;;;1.10;0.30;;;;;;;26.13;32.71;99904.97;4900660;28;98781;-70
2021/05/15 07:24:56;;;;;;;1.80;0.20;;;;;;;26.39;32.45;99907.47;4881965;28;98022;-64
2021/05/15 07:27:22;;;;;;;0.80;0.20;;;;;;;26.77;32.03;99908.03;4880509;28;98049;-64
2021/05/15 07:29:49;;;;;;;1.55;0.25;;;;;;;26.98;31.57;99896.25;4899483;28;99112;-70
2021/05/15 07:32:16;;;;;;;1.00;0.20;;;;;;;27.19;31.34;99905.78;4893253;28;98853;-64
2021/05/15 07:34:42;;;;;;;1.13;0.20;;;;;;;27.28;31.50;99898.69;4899478;28;97911;-64
2021/05/15 07:37:09;;;;;;;0.82;0.20;;;;;;;27.32;31.53;99901.47;4900055;28;98309;-70
2021/05/15 07:39:36;;;;;;;0.30;0.15;;;;;;;26.84;31.45;99910.03;4900010;28;99030;-70
2021/05/15 07:42:03;;;;;;;0.60;0.17;;;;;;;26.32;32.15;99906.63;4881772;28;98799;-63
2021/05/15 07:44:30;;;;;;;0.52;0.20;;;;;;;25.89;32.88;99906.38;4899819;28;97988;-64
2021/05/15 07:46:56;;;;;;;0.40;0.20;;;;;;;25.43;33.83;99901.31;4900375;28;97942;-70
2021/05/15 07:49:22;;;;;;;0.80;0.17;;;;;;;25.17;33.97;99905.78;4899184;28;121707;-70
2021/05/15 07:51:49;;;;;;;0.88;0.20;;;;;;;25.33;33.77;99908.28;4899581;28;127958;-70
2021/05/15 07:54:16;;;;;;;0.60;0.20;;;;;;;25.87;33.35;99909.53;4898939;28;98537;-70
2021/05/15 07:56:42;;;;;;;1.48;0.13;;;;;;;26.30;32.53;99909.78;4897002;28;98605;-71
2021/05/15 07:59:08;;;;;;;1.45;0.15;;;;;;;26.30;32.58;99900.72;4897261;28;129307;-70
2021/05/15 08:01:34;;;;;;;1.85;0.17;;;;;;;26.31;32.28;99903.09;4879044;28;128304;-64
2021/05/15 08:04:00;;;;;;;2.42;0.20;;;;;;;25.91;33.24;99904.03;4869716;28;126124;-70
2021/05/15 08:06:26;;;;;;;1.25;0.10;;;;;;;26.20;32.84;99896.72;4876608;28;98083;-70
2021/05/15 08:08:52;;;;;;;1.42;0.20;;;;;;;26.59;32.39;99894.16;4899199;28;126989;-64
2021/05/15 08:11:18;;;;;;;0.93;0.20;;;;;;;26.53;32.32;99892.19;4863642;28;128966;-64
2021/05/15 08:13:45;;;;;;;1.00;0.20;;;;;;;26.33;33.08;99905.44;4865165;28;98113;-70
2021/05/15 08:16:13;;;;;;;0.88;0.20;;;;;;;26.28;32.50;99897.53;4881907;28;98457;-71
2021/05/15 08:18:40;;;;;;;1.40;0.30;;;;;;;26.99;31.65;99886.75;4899314;28;98586;-64
2021/05/15 08:21:07;;;;;;;1.42;0.20;;;;;;;27.64;30.70;99880.09;4880456;28;113231;-64
2021/05/15 08:23:35;;;;;;;1.13;0.10;;;;;;;27.68;30.28;99879.31;4889697;28;98612;-71
2021/05/15 08:26:05;;;;;;;0.50;0.20;;;;;;;27.11;32.04;99886.41;4862621;28;97983;-71
2021/05/15 08:28:32;;;;;;;0.70;0.10;;;;;;;26.40;32.27;99883.38;4898942;28;98187;-70
2021/05/15 08:30:58;;;;;;;1.00;0.20;;;;;;;27.48;31.63;99878.94;4880453;28;98852;-64
2021/05/15 08:33:27;;;;;;;0.77;0.30;;;;;;;28.45;29.18;99885.88;4898500;28;126102;-71
2021/05/15 08:35:53;;;;;;;0.80;0.20;;;;;;;29.08;28.65;99885.94;4898769;28;98639;-64
2021/05/15 08:38:19;;;;;;;2.97;1.88;;;;;;;29.24;27.53;99883.47;4897945;28;128117;-64
2021/05/15 08:40:45;;;;;;;2.22;1.00;;;;;;;29.39;27.64;99883.34;4897932;28;128420;-71
2021/05/15 08:43:12;;;;;;;2.90;1.40;;;;;;;29.46;27.79;99889.63;4864153;28;126193;-64
2021/05/15 08:45:38;;;;;;;2.35;1.30;;;;;;;29.69;27.95;99885.50;4866043;28;98092;-64
2021/05/15 08:48:05;;;;;;;1.63;0.70;;;;;;;29.75;26.73;99887.44;4877314;28;119936;-64
2021/05/15 08:50:31;;;;;;;1.23;0.40;;;;;;;30.43;25.99;99889.47;4877506;28;98832;-65
2021/05/15 08:52:59;;;;;;;1.20;0.20;;;;;;;30.30;26.80;99877.31;4895359;28;110596;-72
2021/05/15 08:55:31;;;;;;;0.60;0.17;;;;;;;29.58;26.72;99886.38;4899301;28;108239;-72
2021/05/15 08:57:59;;;;;;;1.73;0.30;;;;;;;29.94;27.05;99876.91;4899388;28;98332;-64
2021/05/15 09:00:34;;;;;;;3.45;2.30;;;;;;;28.66;28.55;99878.69;4864527;28;98773;-64
2021/05/15 09:03:03;;;;;;;2.53;2.13;;;;;;;27.86;29.60;99878.13;4898546;28;98705;-64
2021/05/15 09:05:30;;;;;;;1.20;0.63;;;;;;;28.08;29.15;99873.31;4899202;28;98382;-64
2021/05/15 09:08:00;;;;;;;1.83;0.30;;;;;;;28.32;28.66;99877.19;4881269;28;117020;-63
2021/05/15 09:10:29;;;;;;;1.27;0.50;;;;;;;27.10;30.69;99875.72;4898265;28;107774;-64
2021/05/15 09:13:18;;;;;;;2.85;0.30;;;;;;;26.10;32.25;99876.16;4898461;28;97875;-63
2021/05/15 09:15:58;;;;;;;2.13;0.30;;;;;;;25.63;32.47;99880.56;4880447;28;97954;-71
2021/05/15 09:18:27;;;;;;;1.95;0.13;;;;;;;25.00;34.09;99872.50;4899017;28;97953;-71
2021/05/15 09:20:56;;;;;;;0.60;0.10;;;;;;;24.72;34.38;99871.84;4861857;28;99133;-72
2021/05/15 09:23:33;;;;;;;1.35;0.10;;;;;;;25.54;32.44;99868.25;4902079;28;98158;-71
2021/05/15 09:26:17;;;;;;;0.50;0.10;;;;;;;27.59;29.65;99858.38;4901583;28;101195;-63
2021/05/15 09:28:55;;;;;;;0.70;0.10;;;;;;;27.79;29.57;99861.53;4883757;28;98535;-65
2021/05/15 09:31:31;;;;;;;0.90;0.20;;;;;;;27.31;31.12;99869.44;4897878;28;98939;-71
2021/05/15 09:34:01;;;;;;;7.63;0.20;;;;;;;27.17;30.94;99873.00;4901509;28;98419;-71
2021/05/15 09:36:37;;;;;;;1.40;0.20;;;;;;;25.93;33.03;99879.59;4901394;28;98284;-64
2021/05/15 09:39:16;;;;;;;0.50;0.10;;;;;;;25.52;33.10;99876.13;4901001;28;98490;-64
2021/05/15 09:41:53;;;;;;;1.52;0.10;;;;;;;25.07;34.49;99876.09;4898262;28;98938;-62
2021/05/15 09:44:26;;;;;;;0.63;0.10;;;;;;;24.84;35.17;99868.03;4901541;28;98506;-71
2021/05/15 09:46:52;;;;;;;0.43;0.10;;;;;;;25.77;33.10;99870.78;4902341;28;98105;-71
2021/05/15 09:49:27;;;;;;;0.75;0.13;;;;;;;26.41;32.02;99858.16;4901741;28;110480;-70
2021/05/15 09:52:00;;;;;;;0.98;0.20;;;;;;;26.30;32.02;99864.81;4901674;28;98828;-71
2021/05/15 09:54:34;;;;;;;1.30;0.10;;;;;;;25.40;33.04;99857.91;4884207;28;97978;-63
2021/05/15 09:57:11;;;;;;;0.70;0.10;;;;;;;24.85;34.23;99852.28;4882673;28;107380;-71
2021/05/15 09:59:41;;;;;;;1.40;0.10;;;;;;;24.81;35.04;99845.94;4900932;28;99090;-72
2021/05/15 10:02:12;;;;;;;0.52;0.10;;;;;;;24.44;35.52;99852.22;4900373;28;99035;-71
2021/05/15 10:04:40;;;;;;;1.23;0.10;;;;;;;24.20;36.07;99853.47;4901012;28;103814;-63
2021/05/15 10:07:18;;;;;;;1.80;0.20;;;;;;;23.69;37.27;99849.22;4901447;28;98007;-71
2021/05/15 10:09:45;;;;;;;1.02;0.20;;;;;;;23.71;37.17;99846.13;4901424;28;99113;-63
2021/05/15 10:12:11;;;;;;;0.93;0.20;;;;;;;23.47;37.46;99845.34;4900597;28;98635;-63
2021/05/15 10:14:37;;;;;;;1.98;0.20;;;;;;;23.39;38.16;99843.63;4899741;28;127309;-71
2021/05/15 10:17:03;;;;;;;1.35;0.20;;;;;;;23.38;38.38;99843.97;4900244;28;117603;-71
2021/05/15 10:19:29;;;;;;;1.60;0.20;;;;;;;23.74;36.94;99834.38;4850809;28;100860;-71
2021/05/15 10:21:56;;;;;;;0.90;0.20;;;;;;;24.46;36.58;99836.13;4901769;28;98597;-71
2021/05/15 10:24:25;;;;;;;1.40;0.20;;;;;;;25.38;34.39;99833.47;4900975;28;97911;-63
2021/05/15 10:27:12;;;;;;;0.93;0.10;;;;;;;26.50;31.83;99821.13;4880283;28;98060;-63
2021/05/15 10:29:48;;;;;;;1.27;0.20;;;;;;;27.39;31.60;99815.69;4866649;28;98470;-72
2021/05/15 10:32:26;;;;;;;1.67;0.17;;;;;;;28.65;28.43;99822.44;4900216;28;98712;-64
2021/05/15 10:35:09;;;;;;;0.90;0.10;;;;;;;25.81;30.33;99827.47;4900310;28;98343;-72
2021/05/15 10:37:42;;;;;;;0.63;0.10;;;;;;;24.70;31.97;99830.06;4898376;28;98424;-63
2021/05/15 10:40:30;;;;;;;2.08;0.10;;;;;;;23.70;33.94;99823.31;4901120;28;98390;-72
2021/05/15 10:43:03;;;;;;;0.98;0.10;;;;;;;22.86;35.44;99820.69;4897027;28;98813;-63
2021/05/15 10:45:42;;;;;;;1.52;0.10;;;;;;;22.50;36.26;99820.03;4900906;28;98447;-71
2021/05/15 10:48:23;;;;;;;1.30;0.10;;;;;;;22.12;36.51;99826.28;4894251;28;98116;-63
2021/05/15 10:51:00;;;;;;;0.70;0.10;;;;;;;22.91;34.50;99823.16;4900237;28;98464;-63
2021/05/15 10:53:30;;;;;;;1.05;0.10;;;;;;;23.10;34.54;99822.31;4900759;28;99008;-63
2021/05/15 10:56:15;;;;;;;0.75;0.10;;;;;;;23.11;34.88;99818.41;4882400;28;103153;-71
2021/05/15 10:58:51;;;;;;;0.77;0.10;;;;;;;23.03;35.32;99812.03;4901134;28;97969;-71
2021/05/15 11:01:24;;;;;;;1.27;0.10;;;;;;;23.43;34.69;99808.75;4900263;28;98085;-64
2021/05/15 11:03:50;;;;;;;0.45;0.05;;;;;;;23.94;34.46;99807.53;4898627;28;130163;-72
2021/05/15 11:06:21;;;;;;;1.23;0.10;;;;;;;24.33;33.78;99799.75;4866012;28;110910;-64
2021/05/15 11:09:06;;;;;;;0.45;0.10;;;;;;;23.69;34.46;99796.16;4900800;28;97853;-71
2021/05/15 11:11:40;;;;;;;0.55;0.10;;;;;;;23.37;36.09;99795.66;4900967;28;98575;-63
2021/05/15 11:14:39;;;;;;;0.60;0.10;;;;;;;22.85;37.27;99794.41;4901281;28;98393;-71
2021/05/15 11:17:21;;;;;;;0.95;0.10;;;;;;;22.13;39.12;99794.97;4892430;28;99206;-72
2021/05/15 11:20:23;;;;;;;1.65;0.10;;;;;;;21.81;39.91;99797.81;4898007;28;97957;-63
2021/05/15 11:22:51;;;;;;;0.47;0.10;;;;;;;21.47;40.11;99789.25;4804263;28;98689;-71
2021/05/15 11:25:28;;;;;;;0.77;0.10;;;;;;;21.92;39.79;99787.06;4855092;28;99441;-63
2021/05/15 11:27:58;;;;;;;0.77;0.10;;;;;;;22.46;38.56;99791.72;4899854;28;98162;-71
2021/05/15 11:30:31;;;;;;;0.85;0.10;;;;;;;22.34;39.04;99792.69;4900028;28;97986;-71
2021/05/15 11:33:10;;;;;;;2.38;0.10;;;;;;;22.18;40.37;99790.00;4899965;28;97781;-63
2021/05/15 11:35:43;;;;;;;0.60;0.10;;;;;;;21.77;41.30;99795.03;4899590;28;99407;-71
2021/05/15 11:38:11;;;;;;;1.70;0.10;;;;;;;21.27;41.34;99795.78;4899010;28;98389;-63